Nearby METAR Reports

 

EGNM - Leeds And Bradford, United Kingdom
Distance from station: N 11mi, 18km
Updated: 19/10/2018 11:50
Few Clouds
Few Clouds
 Wind from WSW
Wind: WSW 6 mph , 9 km/h
Temperature: 11°C
Dew Point: 7°C
Humidity: 77%
Barometer: 1025 hPa
Clouds: Few Clouds
Visibility: 6 miles , 10 km
Cloud details: Few Clouds 853 m
2018/10/19 10:50 EGNM 191050Z 24005KT 200V270 9999 FEW028 11/07 Q1025
EGXG - Church Fenton, United Kingdom
Distance from station: ENE 19mi, 31km
Updated: 19/12/2013 08:50
NOT Current
Clear
Clear
 Wind from SW
Wind: SW 16 mph , 26 km/h
Temperature: 4°C
Wind Chill: -1°C
Dew Point: -1°C
Humidity: 70%
Barometer: 996 hPa
Clouds: Clear
Visibility: 6 miles , 10 km
2013/12/19 08:50 EGXG 190850Z AUTO 23014KT 9999 NCD 04/M01 Q0996
 
EGXU - Linton-On-Ouse, United Kingdom
Distance from station: NNE 28mi, 45km
Updated: 19/10/2018 11:50
Partly cloudy
Partly cloudy
 Wind from SW
Wind: SW 10 mph , 17 km/h
Temperature: 11°C
Dew Point: 7°C
Humidity: 77%
Barometer: 1025 hPa
Clouds: Partly cloudy
Visibility: 6 miles , 10 km
Cloud details: Few Clouds 1067 m
Partly cloudy 3658 m
2018/10/19 10:50 EGXU 191050Z 22009KT 9999 FEW035 SCT120 11/07 Q1025 BLU NOSIG
EGCN - Doncaster Sheffield, United Kingdom
Distance from station: ESE 30mi, 45km
Updated: 19/10/2018 11:50
Clear
Clear
 Wind from SSW
Wind: SSW 10 mph , 17 km/h
Temperature: 13°C
Dew Point: 8°C
Humidity: 72%
Barometer: 1027 hPa
Summary: Clear
Visibility: greater than 7 miles , 10 km
2018/10/19 10:50 EGCN 191050Z 20009KT CAVOK 13/08 Q1027
 
EGXD - Dishforth RAF, United Kingdom
Distance from station: NNE 31mi, 49km
Updated: 06/06/2016 10:50
NOT Current
Clear
Clear
 Wind from SSE
Wind: SSE 5 mph , 7 km/h
Temperature: 18°C
Dew Point: 11°C
Humidity: 64%
Barometer: 1023 hPa
Clouds: Clear
Visibility: 6 miles , 10 km
2016/06/06 09:50 EGXD 060950Z AUTO 16004KT 9999 // NCD 18/11 Q1023
EGXZ - Topcliffe RAF, United Kingdom
Distance from station: NNE 36mi, 57km
Updated: 19/10/2018 10:50
Partly cloudy
Partly cloudy
 Wind from SSE
Wind: SSE 12 mph , 19 km/h
Temperature: 8°C
Wind Chill: 4°C
Dew Point: 7°C
Humidity: 93%
Barometer: 1024 hPa
Clouds: Partly cloudy
Visibility: 6 miles , 10 km
Cloud details: Partly cloudy 975 m
2018/10/19 09:50 EGXZ 190950Z 15010KT 9999 SCT032 08/07 Q1024 BLU
 
EGCC - Manchester Intl, United Kingdom
Distance from station: SW 36mi, 58km
Updated: 19/10/2018 11:50
Clear
Clear
 Wind from SW
Wind: SW 7 mph , 11 km/h
Temperature: 11°C
Dew Point: 8°C
Humidity: 82%
Barometer: 1026 hPa
Clouds: Clear
Visibility: 6 miles , 10 km
2018/10/19 10:50 EGCC 191050Z AUTO 23006KT 190V260 9999 NCD 11/08 Q1026 NOSIG
EGXE - Leeming RAF, United Kingdom
Distance from station: N 40mi, 65km
Updated: 19/10/2018 11:50
Partly cloudy
Partly cloudy
 Wind from SSE
Wind: SSE 10 mph , 17 km/h
Temperature: 10°C
Wind Chill: 8°C
Dew Point: 7°C
Humidity: 82%
Barometer: 1024 hPa
Clouds: Partly cloudy
Visibility: 6 miles , 10 km
Cloud details: Few Clouds 732 m
Partly cloudy 3962 m
2018/10/19 10:50 EGXE 191050Z 15009KT 9999 FEW024 SCT130 10/07 Q1024 BLU NOSIG